createdAt,value
2018-12-18T00:00:19.790Z,1019.15
2018-12-18T00:01:00.335Z,1019.19
2018-12-18T00:01:41.055Z,1019.15
2018-12-18T00:02:21.538Z,1019.15
2018-12-18T00:03:02.103Z,1019.16
2018-12-18T00:03:42.656Z,1019.14
2018-12-18T00:04:23.203Z,1019.14
2018-12-18T00:05:03.776Z,1019.18
2018-12-18T00:05:44.351Z,1019.19
2018-12-18T00:06:24.908Z,1019.22
2018-12-18T00:07:05.463Z,1019.23
2018-12-18T00:07:46.024Z,1019.22
2018-12-18T00:08:26.579Z,1019.23
2018-12-18T00:09:07.144Z,1019.24
2018-12-18T00:09:47.697Z,1019.26
2018-12-18T00:10:28.260Z,1019.29
2018-12-18T00:11:08.822Z,1019.31
2018-12-18T00:11:49.381Z,1019.31
2018-12-18T00:12:29.965Z,1019.28
2018-12-18T00:13:10.547Z,1019.31
2018-12-18T00:13:51.088Z,1019.32
2018-12-18T00:14:31.648Z,1019.28
2018-12-18T00:15:12.207Z,1019.26
2018-12-18T00:15:52.759Z,1019.23
2018-12-18T00:16:33.318Z,1019.23
2018-12-18T00:17:13.863Z,1019.21
2018-12-18T00:17:54.485Z,1019.22
2018-12-18T00:18:35.076Z,1019.25
2018-12-18T00:19:15.620Z,1019.21
2018-12-18T00:19:56.174Z,1019.23
2018-12-18T00:20:36.731Z,1019.26
2018-12-18T00:21:17.310Z,1019.23
2018-12-18T00:21:57.875Z,1019.22
2018-12-18T00:22:38.437Z,1019.19
2018-12-18T00:23:19.022Z,1019.18
2018-12-18T00:23:59.623Z,1019.19
2018-12-18T00:24:40.162Z,1019.19
2018-12-18T00:25:22.733Z,1019.19
2018-12-18T00:26:03.281Z,1019.18
2018-12-18T00:26:43.831Z,1019.18
2018-12-18T00:27:24.383Z,1019.15
2018-12-18T00:28:04.937Z,1019.16
2018-12-18T00:28:45.513Z,1019.17
2018-12-18T00:29:26.068Z,1019.16
2018-12-18T00:30:06.615Z,1019.13
2018-12-18T00:30:47.178Z,1019.13
2018-12-18T00:31:27.772Z,1019.12
2018-12-18T00:32:08.342Z,1019.1
2018-12-18T00:32:48.890Z,1019.12
2018-12-18T00:33:29.464Z,1019.09
2018-12-18T00:34:10.043Z,1019.11
2018-12-18T00:34:50.612Z,1019.04
2018-12-18T00:35:31.224Z,1019.1
2018-12-18T00:36:11.716Z,1019.12
2018-12-18T00:36:52.400Z,1019.11
2018-12-18T00:37:32.934Z,1019.08
2018-12-18T00:38:13.505Z,1019.11
2018-12-18T00:38:54.056Z,1019.11
2018-12-18T00:39:34.616Z,1019.14
2018-12-18T00:40:15.184Z,1019.15
2018-12-18T00:40:55.746Z,1019.15
2018-12-18T00:41:36.308Z,1019.16
2018-12-18T00:42:16.858Z,1019.11
2018-12-18T00:42:57.419Z,1019.09
2018-12-18T00:43:37.974Z,1019.13
2018-12-18T00:44:18.521Z,1019.12
2018-12-18T00:44:59.091Z,1019.11
2018-12-18T00:45:39.646Z,1019.1
2018-12-18T00:46:20.223Z,1019.07
2018-12-18T00:47:00.789Z,1019.1
2018-12-18T00:47:41.317Z,1019.07
2018-12-18T00:48:21.879Z,1019.09
2018-12-18T00:49:02.431Z,1019.06
2018-12-18T00:49:42.992Z,1019.07
2018-12-18T00:50:23.537Z,1019.09
2018-12-18T00:51:04.110Z,1019.07
2018-12-18T00:51:44.660Z,1019.08
2018-12-18T00:52:25.226Z,1019.09
2018-12-18T00:53:05.773Z,1019.06
2018-12-18T00:53:46.352Z,1019.1
2018-12-18T00:54:26.924Z,1019.1
2018-12-18T00:55:07.501Z,1019.14
2018-12-18T00:55:48.051Z,1019.1
2018-12-18T00:56:28.603Z,1019.09
2018-12-18T00:57:09.169Z,1019.1
2018-12-18T00:57:49.732Z,1019.1
2018-12-18T00:58:30.296Z,1019.09
2018-12-18T00:59:10.863Z,1019.11
2018-12-18T00:59:51.431Z,1019.13
2018-12-18T01:00:31.984Z,1019.11
2018-12-18T01:01:12.547Z,1019.08
2018-12-18T01:01:53.087Z,1019.08
2018-12-18T01:02:33.670Z,1019.09
2018-12-18T01:03:14.187Z,1019.08
2018-12-18T01:03:54.746Z,1019.11
2018-12-18T01:04:35.309Z,1019.11
2018-12-18T01:05:15.875Z,1019.06
2018-12-18T01:05:56.433Z,1019.08
2018-12-18T01:06:37.010Z,1019.09
2018-12-18T01:07:17.598Z,1019.1
2018-12-18T01:07:58.154Z,1019.08
2018-12-18T01:08:38.701Z,1019.12
2018-12-18T01:09:19.278Z,1019.08
2018-12-18T01:09:59.826Z,1019.08
2018-12-18T01:10:40.376Z,1019.1
2018-12-18T01:11:20.958Z,1019.13
2018-12-18T01:12:01.527Z,1019.14
2018-12-18T01:12:42.086Z,1019.1
2018-12-18T01:13:22.647Z,1019.12
2018-12-18T01:14:03.210Z,1019.13
2018-12-18T01:14:43.763Z,1019.17
2018-12-18T01:15:24.313Z,1019.14
2018-12-18T01:16:04.864Z,1019.16
2018-12-18T01:16:45.435Z,1019.17
2018-12-18T01:17:26.000Z,1019.2
2018-12-18T01:18:06.582Z,1019.22
2018-12-18T01:18:47.138Z,1019.19
2018-12-18T01:19:27.704Z,1019.25
2018-12-18T01:20:08.261Z,1019.24
2018-12-18T01:20:48.793Z,1019.29
2018-12-18T01:21:29.426Z,1019.27
2018-12-18T01:22:09.981Z,1019.28
2018-12-18T01:22:50.529Z,1019.32
2018-12-18T01:23:31.088Z,1019.34
2018-12-18T01:24:11.640Z,1019.31
2018-12-18T01:24:52.212Z,1019.33
2018-12-18T01:25:32.768Z,1019.34
2018-12-18T01:26:13.336Z,1019.33
2018-12-18T01:26:53.906Z,1019.31
2018-12-18T01:27:34.461Z,1019.34
2018-12-18T01:28:15.022Z,1019.33
2018-12-18T01:28:55.597Z,1019.32
2018-12-18T01:29:36.155Z,1019.35
2018-12-18T01:30:16.708Z,1019.31
2018-12-18T01:30:57.266Z,1019.34
2018-12-18T01:31:37.826Z,1019.32
2018-12-18T01:32:18.442Z,1019.39
2018-12-18T01:32:58.922Z,1019.35
2018-12-18T01:33:39.550Z,1019.33
2018-12-18T01:34:20.067Z,1019.38
2018-12-18T01:35:00.744Z,1019.38
2018-12-18T01:35:41.613Z,1019.4
2018-12-18T01:36:22.209Z,1019.4
2018-12-18T01:37:02.739Z,1019.41
2018-12-18T01:37:43.297Z,1019.39
2018-12-18T01:38:23.845Z,1019.41
2018-12-18T01:39:04.420Z,1019.38
2018-12-18T01:39:45.003Z,1019.4
2018-12-18T01:40:25.570Z,1019.41
2018-12-18T01:41:06.117Z,1019.39
2018-12-18T01:41:46.674Z,1019.37
2018-12-18T01:42:27.243Z,1019.38
2018-12-18T01:43:07.805Z,1019.4
2018-12-18T01:43:48.346Z,1019.39
2018-12-18T01:44:28.893Z,1019.36
2018-12-18T01:45:09.445Z,1019.4
2018-12-18T01:45:50.022Z,1019.37
2018-12-18T01:46:30.597Z,1019.37
2018-12-18T01:47:11.154Z,1019.4
2018-12-18T01:47:51.728Z,1019.42
2018-12-18T01:48:32.306Z,1019.37
2018-12-18T01:49:12.863Z,1019.39
2018-12-18T01:49:53.430Z,1019.45
2018-12-18T01:50:34.016Z,1019.45
2018-12-18T01:51:14.581Z,1019.39
2018-12-18T01:51:55.137Z,1019.44
2018-12-18T01:52:35.710Z,1019.44
2018-12-18T01:53:16.284Z,1019.45
2018-12-18T01:53:56.892Z,1019.48
2018-12-18T01:54:37.480Z,1019.47
2018-12-18T01:55:18.030Z,1019.5
2018-12-18T01:55:58.592Z,1019.47
2018-12-18T01:56:39.135Z,1019.47
2018-12-18T01:57:19.717Z,1019.47
2018-12-18T01:58:00.284Z,1019.54
2018-12-18T01:58:40.840Z,1019.51
2018-12-18T01:59:21.399Z,1019.54
2018-12-18T02:00:02.074Z,1019.51
2018-12-18T02:00:42.659Z,1019.5
2018-12-18T02:01:23.263Z,1019.48
2018-12-18T02:02:03.846Z,1019.54
2018-12-18T02:02:44.408Z,1019.5
2018-12-18T02:03:24.961Z,1019.51
2018-12-18T02:04:06.017Z,1019.45
2018-12-18T02:04:46.123Z,1019.48
2018-12-18T02:05:26.679Z,1019.5
2018-12-18T02:06:07.221Z,1019.48
2018-12-18T02:06:47.810Z,1019.49
2018-12-18T02:07:28.375Z,1019.48
2018-12-18T02:08:08.943Z,1019.46
2018-12-18T02:08:49.510Z,1019.48
2018-12-18T02:09:30.078Z,1019.49
2018-12-18T02:10:10.651Z,1019.48
2018-12-18T02:10:51.209Z,1019.52
2018-12-18T02:11:31.788Z,1019.5
2018-12-18T02:12:12.348Z,1019.47
2018-12-18T02:12:52.917Z,1019.46
2018-12-18T02:13:33.468Z,1019.53
2018-12-18T02:14:14.052Z,1019.44
2018-12-18T02:14:54.616Z,1019.48
2018-12-18T02:15:35.167Z,1019.5
2018-12-18T02:16:15.726Z,1019.53
2018-12-18T02:16:56.279Z,1019.49
2018-12-18T02:17:36.833Z,1019.48
2018-12-18T02:18:17.409Z,1019.52
2018-12-18T02:18:57.973Z,1019.53
2018-12-18T02:19:38.558Z,1019.49
2018-12-18T02:20:19.125Z,1019.51
2018-12-18T02:20:59.695Z,1019.5
2018-12-18T02:21:40.427Z,1019.49
2018-12-18T02:22:20.964Z,1019.49
2018-12-18T02:23:01.511Z,1019.54
2018-12-18T02:23:42.171Z,1019.47
2018-12-18T02:24:22.724Z,1019.5
2018-12-18T02:25:03.341Z,1019.5
2018-12-18T02:25:43.925Z,1019.47
2018-12-18T02:26:24.483Z,1019.47
2018-12-18T02:27:05.096Z,1019.48
2018-12-18T02:27:45.654Z,1019.47
2018-12-18T02:28:26.222Z,1019.45
2018-12-18T02:29:06.772Z,1019.46
2018-12-18T02:29:47.349Z,1019.47
2018-12-18T02:30:27.949Z,1019.47
2018-12-18T02:31:08.515Z,1019.49
2018-12-18T02:31:49.178Z,1019.5
2018-12-18T02:32:29.663Z,1019.51
2018-12-18T02:33:10.251Z,1019.47
2018-12-18T02:33:50.851Z,1019.48
2018-12-18T02:34:31.527Z,1019.47
2018-12-18T02:35:12.099Z,1019.47
2018-12-18T02:35:52.677Z,1019.5
2018-12-18T02:36:33.239Z,1019.51
2018-12-18T02:37:13.819Z,1019.46
2018-12-18T02:37:54.387Z,1019.49
2018-12-18T02:38:34.961Z,1019.48
2018-12-18T02:39:15.521Z,1019.48
2018-12-18T02:39:56.088Z,1019.45
2018-12-18T02:40:36.652Z,1019.44
2018-12-18T02:41:17.213Z,1019.4
2018-12-18T02:41:57.764Z,1019.45
2018-12-18T02:42:38.346Z,1019.39
2018-12-18T02:43:18.940Z,1019.36
2018-12-18T02:43:59.441Z,1019.35
2018-12-18T02:44:40.041Z,1019.36
2018-12-18T02:45:20.607Z,1019.31
2018-12-18T02:46:01.170Z,1019.32
2018-12-18T02:46:41.734Z,1019.35
2018-12-18T02:47:22.284Z,1019.36
2018-12-18T02:48:02.835Z,1019.38
2018-12-18T02:48:43.398Z,1019.33
2018-12-18T02:49:23.970Z,1019.33
2018-12-18T02:50:04.526Z,1019.37
2018-12-18T02:50:45.086Z,1019.37
2018-12-18T02:51:25.653Z,1019.39
2018-12-18T02:52:06.236Z,1019.36
2018-12-18T02:52:46.788Z,1019.32
2018-12-18T02:53:27.344Z,1019.35
2018-12-18T02:54:07.911Z,1019.36
2018-12-18T02:54:48.451Z,1019.34
2018-12-18T02:55:29.004Z,1019.39
2018-12-18T02:56:09.565Z,1019.37
2018-12-18T02:56:50.136Z,1019.39
2018-12-18T02:57:30.679Z,1019.37
2018-12-18T02:58:11.247Z,1019.43
2018-12-18T02:58:51.806Z,1019.42
2018-12-18T02:59:32.374Z,1019.42
2018-12-18T03:00:12.927Z,1019.44
2018-12-18T03:00:53.492Z,1019.4
2018-12-18T03:01:34.047Z,1019.39
2018-12-18T03:02:14.606Z,1019.41
2018-12-18T03:02:55.159Z,1019.38
2018-12-18T03:03:35.711Z,1019.41
2018-12-18T03:04:21.261Z,1019.39
2018-12-18T03:04:56.818Z,1019.35
2018-12-18T03:05:37.376Z,1019.37
2018-12-18T03:06:17.931Z,1019.4
2018-12-18T03:06:58.502Z,1019.34
2018-12-18T03:07:39.062Z,1019.38
2018-12-18T03:08:19.618Z,1019.44
2018-12-18T03:09:00.177Z,1019.47
2018-12-18T03:09:40.732Z,1019.48
2018-12-18T03:10:21.287Z,1019.47
2018-12-18T03:11:01.863Z,1019.47
2018-12-18T03:11:42.421Z,1019.48
2018-12-18T03:12:22.982Z,1019.54
2018-12-18T03:13:03.539Z,1019.57
2018-12-18T03:13:44.088Z,1019.57
2018-12-18T03:14:24.635Z,1019.58
2018-12-18T03:15:05.223Z,1019.58
2018-12-18T03:15:45.800Z,1019.58
2018-12-18T03:16:26.366Z,1019.56
2018-12-18T03:17:06.915Z,1019.58
2018-12-18T03:17:47.460Z,1019.56
2018-12-18T03:18:28.053Z,1019.57
2018-12-18T03:19:08.598Z,1019.58
2018-12-18T03:19:49.176Z,1019.6
2018-12-18T03:20:29.745Z,1019.57
2018-12-18T03:21:10.309Z,1019.57
2018-12-18T03:21:50.868Z,1019.61
2018-12-18T03:22:31.438Z,1019.61
2018-12-18T03:23:12.021Z,1019.61
2018-12-18T03:23:52.578Z,1019.62
2018-12-18T03:24:33.164Z,1019.6
2018-12-18T03:25:13.733Z,1019.57
2018-12-18T03:25:54.292Z,1019.59
2018-12-18T03:26:34.861Z,1019.61
2018-12-18T03:27:15.414Z,1019.61
2018-12-18T03:27:55.964Z,1019.61
2018-12-18T03:28:36.509Z,1019.6
2018-12-18T03:29:17.056Z,1019.59
2018-12-18T03:29:57.649Z,1019.6
2018-12-18T03:30:38.216Z,1019.6
2018-12-18T03:31:18.868Z,1019.57
2018-12-18T03:31:59.357Z,1019.59
2018-12-18T03:32:39.920Z,1019.54
2018-12-18T03:33:20.486Z,1019.57
2018-12-18T03:34:01.043Z,1019.56
2018-12-18T03:34:41.607Z,1019.53
2018-12-18T03:35:22.435Z,1019.54
2018-12-18T03:36:03.005Z,1019.53
2018-12-18T03:36:43.570Z,1019.49
2018-12-18T03:37:24.132Z,1019.49
2018-12-18T03:38:04.683Z,1019.5
2018-12-18T03:38:45.274Z,1019.47
2018-12-18T03:39:25.835Z,1019.48
2018-12-18T03:40:06.388Z,1019.47
2018-12-18T03:40:46.936Z,1019.48
2018-12-18T03:41:27.508Z,1019.47
2018-12-18T03:42:08.075Z,1019.49
2018-12-18T03:42:48.653Z,1019.5
2018-12-18T03:43:29.213Z,1019.51
2018-12-18T03:44:09.777Z,1019.51
2018-12-18T03:44:50.336Z,1019.58
2018-12-18T03:45:30.896Z,1019.53
2018-12-18T03:46:11.451Z,1019.59
2018-12-18T03:46:52.018Z,1019.56
2018-12-18T03:47:32.604Z,1019.58
2018-12-18T03:48:13.162Z,1019.58
2018-12-18T03:48:53.722Z,1019.59
2018-12-18T03:49:34.286Z,1019.58
2018-12-18T03:50:14.836Z,1019.56
2018-12-18T03:50:55.395Z,1019.57
2018-12-18T03:51:35.967Z,1019.52
2018-12-18T03:52:16.505Z,1019.53
2018-12-18T03:52:57.051Z,1019.55
2018-12-18T03:53:37.605Z,1019.51
2018-12-18T03:54:18.174Z,1019.56
2018-12-18T03:54:58.737Z,1019.49
2018-12-18T03:55:39.320Z,1019.52
2018-12-18T03:56:19.872Z,1019.53
2018-12-18T03:57:00.428Z,1019.52
2018-12-18T03:57:40.987Z,1019.52
2018-12-18T03:58:21.566Z,1019.51
2018-12-18T03:59:02.109Z,1019.52
2018-12-18T03:59:42.656Z,1019.5
2018-12-18T04:00:23.223Z,1019.55
2018-12-18T04:01:03.805Z,1019.53
2018-12-18T04:01:44.368Z,1019.49
2018-12-18T04:02:24.959Z,1019.55
2018-12-18T04:03:05.513Z,1019.53
2018-12-18T04:03:46.068Z,1019.55
2018-12-18T04:04:26.626Z,1019.53
2018-12-18T04:05:07.176Z,1019.51
2018-12-18T04:05:47.782Z,1019.54
2018-12-18T04:06:28.365Z,1019.57
2018-12-18T04:07:08.933Z,1019.56
2018-12-18T04:07:49.476Z,1019.57
2018-12-18T04:08:30.035Z,1019.55
2018-12-18T04:09:10.560Z,1019.55
2018-12-18T04:09:51.123Z,1019.6
2018-12-18T04:10:31.991Z,1019.56
2018-12-18T04:11:12.295Z,1019.56
2018-12-18T04:11:52.852Z,1019.59
2018-12-18T04:12:33.419Z,1019.56
2018-12-18T04:13:13.985Z,1019.55
2018-12-18T04:13:54.540Z,1019.57
2018-12-18T04:14:35.180Z,1019.6
2018-12-18T04:15:15.705Z,1019.6
2018-12-18T04:15:56.290Z,1019.57
2018-12-18T04:16:36.841Z,1019.58
2018-12-18T04:17:17.434Z,1019.54
2018-12-18T04:17:58.031Z,1019.55
2018-12-18T04:18:38.594Z,1019.58
2018-12-18T04:19:19.171Z,1019.59
2018-12-18T04:19:59.799Z,1019.56
2018-12-18T04:20:40.376Z,1019.56
2018-12-18T04:21:20.942Z,1019.53
2018-12-18T04:22:01.549Z,1019.52
2018-12-18T04:22:42.101Z,1019.52
2018-12-18T04:23:22.643Z,1019.51
2018-12-18T04:24:03.194Z,1019.52
2018-12-18T04:24:43.798Z,1019.52
2018-12-18T04:25:24.347Z,1019.53
2018-12-18T04:26:04.898Z,1019.47
2018-12-18T04:26:45.480Z,1019.51
2018-12-18T04:27:26.137Z,1019.54
2018-12-18T04:28:06.683Z,1019.47
2018-12-18T04:28:47.239Z,1019.48
2018-12-18T04:29:27.818Z,1019.52
2018-12-18T04:30:08.354Z,1019.52
2018-12-18T04:30:48.923Z,1019.5
2018-12-18T04:31:29.476Z,1019.49
2018-12-18T04:32:10.063Z,1019.45
2018-12-18T04:32:50.639Z,1019.45
2018-12-18T04:33:31.242Z,1019.44
2018-12-18T04:34:11.834Z,1019.43
2018-12-18T04:34:52.431Z,1019.48
2018-12-18T04:35:32.987Z,1019.45
2018-12-18T04:36:13.552Z,1019.56
2018-12-18T04:36:54.121Z,1019.53
2018-12-18T04:37:34.691Z,1019.54
2018-12-18T04:38:15.277Z,1019.53
2018-12-18T04:38:55.833Z,1019.56
2018-12-18T04:39:36.401Z,1019.55
2018-12-18T04:40:16.976Z,1019.52
2018-12-18T04:40:57.576Z,1019.55
2018-12-18T04:41:38.120Z,1019.57
2018-12-18T04:42:18.680Z,1019.58
2018-12-18T04:42:59.213Z,1019.53
2018-12-18T04:43:39.779Z,1019.58
2018-12-18T04:44:20.379Z,1019.58
2018-12-18T04:45:00.910Z,1019.63
2018-12-18T04:45:41.486Z,1019.61
2018-12-18T04:46:22.044Z,1019.63
2018-12-18T04:47:02.620Z,1019.65
2018-12-18T04:47:43.185Z,1019.7
2018-12-18T04:48:23.728Z,1019.66
2018-12-18T04:49:04.305Z,1019.67
2018-12-18T04:49:44.854Z,1019.66
2018-12-18T04:50:25.427Z,1019.67
2018-12-18T04:51:05.968Z,1019.6
2018-12-18T04:51:46.527Z,1019.58
2018-12-18T04:52:27.097Z,1019.59
2018-12-18T04:53:07.663Z,1019.59
2018-12-18T04:53:48.238Z,1019.57
2018-12-18T04:54:28.788Z,1019.57
2018-12-18T04:55:09.364Z,1019.56
2018-12-18T04:55:49.905Z,1019.55
2018-12-18T04:56:30.487Z,1019.54
2018-12-18T04:57:11.073Z,1019.63
2018-12-18T04:57:51.640Z,1019.55
2018-12-18T04:58:32.214Z,1019.57
2018-12-18T04:59:12.781Z,1019.59
2018-12-18T04:59:53.333Z,1019.61
2018-12-18T05:00:33.895Z,1019.57
2018-12-18T05:01:14.466Z,1019.58
2018-12-18T05:01:55.034Z,1019.57
2018-12-18T05:02:35.611Z,1019.6
2018-12-18T05:03:16.160Z,1019.57
2018-12-18T05:03:56.715Z,1019.54
2018-12-18T05:04:37.259Z,1019.59
2018-12-18T05:05:17.833Z,1019.54
2018-12-18T05:05:58.373Z,1019.58
2018-12-18T05:06:38.941Z,1019.62
2018-12-18T05:07:19.506Z,1019.53
2018-12-18T05:08:00.079Z,1019.53
2018-12-18T05:08:40.632Z,1019.56
2018-12-18T05:09:21.192Z,1019.53
2018-12-18T05:10:01.780Z,1019.54
2018-12-18T05:10:42.334Z,1019.61
2018-12-18T05:11:22.894Z,1019.54
2018-12-18T05:12:03.457Z,1019.59
2018-12-18T05:12:44.018Z,1019.55
2018-12-18T05:13:24.564Z,1019.54
2018-12-18T05:14:05.132Z,1019.54
2018-12-18T05:14:45.701Z,1019.53
2018-12-18T05:15:26.276Z,1019.56
2018-12-18T05:16:06.835Z,1019.51
2018-12-18T05:16:47.378Z,1019.53
2018-12-18T05:17:27.957Z,1019.45
2018-12-18T05:18:08.514Z,1019.53
2018-12-18T05:18:49.069Z,1019.53
2018-12-18T05:19:29.633Z,1019.55
2018-12-18T05:20:10.201Z,1019.54
2018-12-18T05:20:50.755Z,1019.57
2018-12-18T05:21:31.398Z,1019.47
2018-12-18T05:22:12.301Z,1019.52
2018-12-18T05:22:52.874Z,1019.5
2018-12-18T05:23:33.432Z,1019.54
2018-12-18T05:24:13.984Z,1019.52
2018-12-18T05:24:54.536Z,1019.53
2018-12-18T05:25:35.217Z,1019.52
2018-12-18T05:26:15.716Z,1019.53
2018-12-18T05:26:56.294Z,1019.57
2018-12-18T05:27:36.863Z,1019.54
2018-12-18T05:28:17.426Z,1019.55
2018-12-18T05:28:57.985Z,1019.53
2018-12-18T05:29:38.544Z,1019.54
2018-12-18T05:30:19.097Z,1019.61
2018-12-18T05:30:59.661Z,1019.6
2018-12-18T05:31:40.267Z,1019.6
2018-12-18T05:32:20.794Z,1019.6
2018-12-18T05:33:01.354Z,1019.63
2018-12-18T05:33:41.948Z,1019.59
2018-12-18T05:34:22.513Z,1019.6
2018-12-18T05:35:03.082Z,1019.6
2018-12-18T05:35:43.655Z,1019.62
2018-12-18T05:36:24.234Z,1019.61
2018-12-18T05:37:04.810Z,1019.59
2018-12-18T05:37:45.411Z,1019.6
2018-12-18T05:38:26.270Z,1019.63
2018-12-18T05:39:07.165Z,1019.65
2018-12-18T05:39:48.839Z,1019.64
2018-12-18T05:40:29.511Z,1019.67
2018-12-18T05:41:10.299Z,1019.65
2018-12-18T05:41:50.869Z,1019.64
2018-12-18T05:42:31.519Z,1019.62
2018-12-18T05:43:12.117Z,1019.59
2018-12-18T05:43:52.646Z,1019.61
2018-12-18T05:44:33.205Z,1019.66
2018-12-18T05:45:13.770Z,1019.7
2018-12-18T05:45:54.334Z,1019.69
2018-12-18T05:46:34.905Z,1019.7
2018-12-18T05:47:15.517Z,1019.68
2018-12-18T05:47:56.151Z,1019.73
2018-12-18T05:48:37.053Z,1019.76
2018-12-18T05:49:17.842Z,1019.74
2018-12-18T05:49:58.420Z,1019.78
2018-12-18T05:50:40.588Z,1019.76
2018-12-18T05:51:21.380Z,1019.77
2018-12-18T05:52:01.926Z,1019.78
2018-12-18T05:52:42.678Z,1019.77
2018-12-18T05:53:23.360Z,1019.8
2018-12-18T05:54:03.919Z,1019.83
2018-12-18T05:54:44.510Z,1019.83
2018-12-18T05:55:25.062Z,1019.81
2018-12-18T05:56:05.632Z,1019.83
2018-12-18T05:56:46.186Z,1019.78
2018-12-18T05:57:26.750Z,1019.81
2018-12-18T05:58:07.315Z,1019.83
2018-12-18T05:58:48.181Z,1019.83
2018-12-18T05:59:28.742Z,1019.83
2018-12-18T06:00:09.396Z,1019.86
2018-12-18T06:00:50.088Z,1019.84
2018-12-18T06:01:30.624Z,1019.84
2018-12-18T06:02:11.183Z,1019.89
2018-12-18T06:02:51.752Z,1019.85
2018-12-18T06:03:32.310Z,1019.87
2018-12-18T06:04:12.863Z,1019.89
2018-12-18T06:04:53.467Z,1019.87
2018-12-18T06:05:34.063Z,1019.9
2018-12-18T06:06:14.657Z,1019.93
2018-12-18T06:06:55.230Z,1019.93
2018-12-18T06:07:35.812Z,1019.91
2018-12-18T06:08:16.373Z,1019.96
2018-12-18T06:08:56.955Z,1019.92
2018-12-18T06:09:37.534Z,1019.93
2018-12-18T06:10:18.093Z,1019.93
2018-12-18T06:10:58.656Z,1019.91
2018-12-18T06:11:39.225Z,1019.95
2018-12-18T06:12:19.861Z,1019.92
2018-12-18T06:13:00.428Z,1019.95
2018-12-18T06:13:40.989Z,1019.92
2018-12-18T06:14:21.574Z,1019.97
2018-12-18T06:15:02.133Z,1019.96
2018-12-18T06:15:42.703Z,1019.94
2018-12-18T06:16:23.282Z,1020.01
2018-12-18T06:17:03.836Z,1020.01
2018-12-18T06:17:44.397Z,1020
2018-12-18T06:18:24.976Z,1020.02
2018-12-18T06:19:05.594Z,1020
2018-12-18T06:19:46.171Z,1020.04
2018-12-18T06:20:26.840Z,1020.01
2018-12-18T06:21:07.432Z,1020.03
2018-12-18T06:21:48.030Z,1020.03
2018-12-18T06:22:28.623Z,1020.05
2018-12-18T06:23:09.202Z,1020.05
2018-12-18T06:23:49.779Z,1020.08
2018-12-18T06:24:30.390Z,1020.08
2018-12-18T06:25:10.965Z,1020.11
2018-12-18T06:25:51.520Z,1020.09
2018-12-18T06:26:32.070Z,1020.1
2018-12-18T06:27:12.625Z,1020.09
2018-12-18T06:27:53.180Z,1020.12
2018-12-18T06:28:33.831Z,1020.11
2018-12-18T06:29:14.389Z,1020.11
2018-12-18T06:29:54.949Z,1020.1
2018-12-18T06:30:35.535Z,1020.11
2018-12-18T06:31:16.133Z,1020.11
2018-12-18T06:31:56.686Z,1020.07
2018-12-18T06:32:37.341Z,1020.07
2018-12-18T06:33:17.911Z,1020.05
2018-12-18T06:33:58.550Z,1020.1
2018-12-18T06:34:39.123Z,1020.11
2018-12-18T06:35:19.974Z,1020.07
2018-12-18T06:36:00.566Z,1020.12
2018-12-18T06:36:41.173Z,1020.17
2018-12-18T06:37:21.731Z,1020.16
2018-12-18T06:38:02.294Z,1020.12
2018-12-18T06:38:42.841Z,1020.14
2018-12-18T06:39:23.672Z,1020.12
2018-12-18T06:40:04.318Z,1020.12
2018-12-18T06:40:44.903Z,1020.17
2018-12-18T06:41:26.350Z,1020.15
2018-12-18T06:42:06.912Z,1020.17
2018-12-18T06:42:47.512Z,1020.12
2018-12-18T06:43:28.073Z,1020.14
2018-12-18T06:44:08.661Z,1020.14
2018-12-18T06:44:49.258Z,1020.14
2018-12-18T06:45:29.831Z,1020.16
2018-12-18T06:46:10.427Z,1020.2
2018-12-18T06:46:50.999Z,1020.18
2018-12-18T06:47:31.590Z,1020.16
2018-12-18T06:48:12.161Z,1020.21
2018-12-18T06:48:52.737Z,1020.19
2018-12-18T06:49:33.350Z,1020.17
2018-12-18T06:50:13.928Z,1020.17
2018-12-18T06:50:54.491Z,1020.21
2018-12-18T06:51:35.045Z,1020.19
2018-12-18T06:52:15.607Z,1020.2
2018-12-18T06:52:56.201Z,1020.23
2018-12-18T06:53:36.775Z,1020.2
2018-12-18T06:54:17.337Z,1020.18
2018-12-18T06:54:57.889Z,1020.2
2018-12-18T06:55:38.489Z,1020.19
2018-12-18T06:56:19.061Z,1020.17
2018-12-18T06:56:59.753Z,1020.24
2018-12-18T06:57:40.407Z,1020.22
2018-12-18T06:58:20.958Z,1020.21
2018-12-18T06:59:01.554Z,1020.2
2018-12-18T06:59:42.128Z,1020.24
2018-12-18T07:00:22.703Z,1020.23
2018-12-18T07:01:03.259Z,1020.25
2018-12-18T07:01:43.891Z,1020.23
2018-12-18T07:02:24.446Z,1020.23
2018-12-18T07:03:04.998Z,1020.24
2018-12-18T07:03:45.546Z,1020.25
2018-12-18T07:04:26.170Z,1020.23
2018-12-18T07:05:06.744Z,1020.26
2018-12-18T07:05:47.306Z,1020.22
2018-12-18T07:06:27.865Z,1020.28
2018-12-18T07:07:08.473Z,1020.29
2018-12-18T07:07:49.423Z,1020.29
2018-12-18T07:08:30.048Z,1020.28
2018-12-18T07:09:10.698Z,1020.29
2018-12-18T07:09:51.252Z,1020.32
2018-12-18T07:10:31.851Z,1020.3
2018-12-18T07:11:12.413Z,1020.33
2018-12-18T07:11:53.003Z,1020.26
2018-12-18T07:12:33.545Z,1020.29
2018-12-18T07:13:14.135Z,1020.23
2018-12-18T07:13:54.720Z,1020.27
2018-12-18T07:14:35.280Z,1020.25
2018-12-18T07:15:15.857Z,1020.21
2018-12-18T07:15:56.460Z,1020.21
2018-12-18T07:16:37.056Z,1020.21
2018-12-18T07:17:17.647Z,1020.21
2018-12-18T07:17:58.258Z,1020.21
2018-12-18T07:18:38.842Z,1020.28
2018-12-18T07:19:19.411Z,1020.29
2018-12-18T07:19:59.996Z,1020.25
2018-12-18T07:20:40.527Z,1020.23
2018-12-18T07:21:21.112Z,1020.28
2018-12-18T07:22:01.672Z,1020.33
2018-12-18T07:22:42.250Z,1020.31
2018-12-18T07:23:22.815Z,1020.34
2018-12-18T07:24:03.381Z,1020.33
2018-12-18T07:24:43.977Z,1020.33
2018-12-18T07:25:24.569Z,1020.34
2018-12-18T07:26:05.132Z,1020.39
2018-12-18T07:26:45.731Z,1020.42
2018-12-18T07:27:26.317Z,1020.35
2018-12-18T07:28:06.896Z,1020.39
2018-12-18T07:28:47.581Z,1020.41
2018-12-18T07:29:28.274Z,1020.35
2018-12-18T07:30:08.846Z,1020.38
2018-12-18T07:30:49.456Z,1020.42
2018-12-18T07:31:30.027Z,1020.43
2018-12-18T07:32:10.584Z,1020.38
2018-12-18T07:32:51.135Z,1020.4
2018-12-18T07:33:31.694Z,1020.38
2018-12-18T07:34:12.259Z,1020.33
2018-12-18T07:34:52.819Z,1020.36
2018-12-18T07:35:33.713Z,1020.36
2018-12-18T07:36:14.328Z,1020.39
2018-12-18T07:36:54.905Z,1020.38
2018-12-18T07:37:35.492Z,1020.4
2018-12-18T07:38:16.116Z,1020.38
2018-12-18T07:38:56.671Z,1020.41
2018-12-18T07:39:37.232Z,1020.36
2018-12-18T07:40:17.809Z,1020.39
2018-12-18T07:40:58.356Z,1020.39
2018-12-18T07:41:38.914Z,1020.4
2018-12-18T07:42:19.465Z,1020.4
2018-12-18T07:43:00.045Z,1020.43
2018-12-18T07:43:40.603Z,1020.38
2018-12-18T07:44:21.173Z,1020.44
2018-12-18T07:45:01.726Z,1020.4
2018-12-18T07:45:42.300Z,1020.45
2018-12-18T07:46:22.898Z,1020.43
2018-12-18T07:47:03.494Z,1020.49
2018-12-18T07:47:44.164Z,1020.51
2018-12-18T07:48:24.775Z,1020.45
2018-12-18T07:49:05.406Z,1020.48
2018-12-18T07:49:46.048Z,1020.5
2018-12-18T07:50:26.664Z,1020.5
2018-12-18T07:51:07.317Z,1020.54
2018-12-18T07:51:47.878Z,1020.56
2018-12-18T07:52:28.885Z,1020.59
2018-12-18T07:53:09.530Z,1020.59
2018-12-18T07:53:50.112Z,1020.56
2018-12-18T07:54:30.728Z,1020.59
2018-12-18T07:55:11.312Z,1020.6
2018-12-18T07:55:51.887Z,1020.66
2018-12-18T07:56:32.450Z,1020.62
2018-12-18T07:57:13.027Z,1020.62
2018-12-18T07:57:53.591Z,1020.65
2018-12-18T07:58:34.274Z,1020.65
2018-12-18T07:59:14.780Z,1020.66
2018-12-18T07:59:55.349Z,1020.67
2018-12-18T08:00:35.901Z,1020.7
2018-12-18T08:01:16.514Z,1020.64
2018-12-18T08:01:57.373Z,1020.66
2018-12-18T08:02:37.930Z,1020.64
2018-12-18T08:03:18.508Z,1020.67
2018-12-18T08:03:59.087Z,1020.69
2018-12-18T08:04:39.651Z,1020.67
2018-12-18T08:05:20.217Z,1020.67
2018-12-18T08:06:00.777Z,1020.66
2018-12-18T08:06:41.343Z,1020.69
2018-12-18T08:07:21.938Z,1020.69
2018-12-18T08:08:02.498Z,1020.71
2018-12-18T08:08:43.063Z,1020.67
2018-12-18T08:09:23.619Z,1020.68
2018-12-18T08:10:04.197Z,1020.69
2018-12-18T08:10:44.791Z,1020.72
2018-12-18T08:11:25.327Z,1020.66
2018-12-18T08:12:05.872Z,1020.71
2018-12-18T08:12:46.430Z,1020.74